sensor_id;sensor_type;location;lat;lon;timestamp;temperature;humidity
11107;DHT22;5607;48.302;14.294;2022-10-16T00:02:41;14.50;99.90
11107;DHT22;5607;48.302;14.294;2022-10-16T00:05:28;14.50;99.90
11107;DHT22;5607;48.302;14.294;2022-10-16T00:08:14;14.50;99.90
11107;DHT22;5607;48.302;14.294;2022-10-16T00:11:05;14.50;99.90
11107;DHT22;5607;48.302;14.294;2022-10-16T00:13:54;14.40;99.90
11107;DHT22;5607;48.302;14.294;2022-10-16T00:16:41;14.40;99.90
11107;DHT22;5607;48.302;14.294;2022-10-16T00:19:27;14.40;99.90
11107;DHT22;5607;48.302;14.294;2022-10-16T00:22:13;14.30;99.90
11107;DHT22;5607;48.302;14.294;2022-10-16T00:25:00;14.30;99.90
11107;DHT22;5607;48.302;14.294;2022-10-16T00:27:46;14.30;99.90
11107;DHT22;5607;48.302;14.294;2022-10-16T00:30:32;14.30;99.90
11107;DHT22;5607;48.302;14.294;2022-10-16T00:33:18;14.30;99.90
11107;DHT22;5607;48.302;14.294;2022-10-16T00:36:06;14.30;99.90
11107;DHT22;5607;48.302;14.294;2022-10-16T00:38:53;14.30;99.90
11107;DHT22;5607;48.302;14.294;2022-10-16T00:41:40;14.30;99.90
11107;DHT22;5607;48.302;14.294;2022-10-16T00:44:43;14.30;99.90
11107;DHT22;5607;48.302;14.294;2022-10-16T00:47:37;14.40;99.90
11107;DHT22;5607;48.302;14.294;2022-10-16T00:50:31;14.40;99.90
11107;DHT22;5607;48.302;14.294;2022-10-16T00:53:18;14.40;99.90
11107;DHT22;5607;48.302;14.294;2022-10-16T00:56:04;14.30;99.90
11107;DHT22;5607;48.302;14.294;2022-10-16T00:58:51;14.30;99.90
11107;DHT22;5607;48.302;14.294;2022-10-16T01:01:37;14.40;99.90
11107;DHT22;5607;48.302;14.294;2022-10-16T01:04:24;14.30;99.90
11107;DHT22;5607;48.302;14.294;2022-10-16T01:07:30;14.30;99.90
11107;DHT22;5607;48.302;14.294;2022-10-16T01:13:18;14.30;99.90
11107;DHT22;5607;48.302;14.294;2022-10-16T01:16:12;14.30;99.90
11107;DHT22;5607;48.302;14.294;2022-10-16T01:20:01;14.30;99.90
11107;DHT22;5607;48.302;14.294;2022-10-16T01:22:15;14.30;99.90
11107;DHT22;5607;48.302;14.294;2022-10-16T01:25:02;14.30;99.90
11107;DHT22;5607;48.302;14.294;2022-10-16T01:27:51;14.30;99.90
11107;DHT22;5607;48.302;14.294;2022-10-16T01:30:38;14.30;99.90
11107;DHT22;5607;48.302;14.294;2022-10-16T01:33:30;14.30;99.90
11107;DHT22;5607;48.302;14.294;2022-10-16T01:36:25;14.30;99.90
11107;DHT22;5607;48.302;14.294;2022-10-16T01:39:13;14.20;99.90
11107;DHT22;5607;48.302;14.294;2022-10-16T01:42:02;14.10;99.90
11107;DHT22;5607;48.302;14.294;2022-10-16T01:44:50;14.10;99.90
11107;DHT22;5607;48.302;14.294;2022-10-16T01:47:37;14.20;99.90
11107;DHT22;5607;48.302;14.294;2022-10-16T01:50:23;14.10;99.90
11107;DHT22;5607;48.302;14.294;2022-10-16T01:53:11;14.10;99.90
11107;DHT22;5607;48.302;14.294;2022-10-16T01:55:58;14.10;99.90
11107;DHT22;5607;48.302;14.294;2022-10-16T01:58:47;14.10;99.90
11107;DHT22;5607;48.302;14.294;2022-10-16T02:01:35;14.10;99.90
11107;DHT22;5607;48.302;14.294;2022-10-16T02:07:11;14.00;99.90
11107;DHT22;5607;48.302;14.294;2022-10-16T02:09:59;14.10;99.90
11107;DHT22;5607;48.302;14.294;2022-10-16T02:12:46;14.10;99.90
11107;DHT22;5607;48.302;14.294;2022-10-16T02:15:34;14.00;99.90
11107;DHT22;5607;48.302;14.294;2022-10-16T02:18:20;14.00;99.90
11107;DHT22;5607;48.302;14.294;2022-10-16T02:21:22;14.00;99.90
11107;DHT22;5607;48.302;14.294;2022-10-16T02:24:17;14.00;99.90
11107;DHT22;5607;48.302;14.294;2022-10-16T02:30:02;13.90;99.90
11107;DHT22;5607;48.302;14.294;2022-10-16T02:32:53;13.90;99.90
11107;DHT22;5607;48.302;14.294;2022-10-16T02:35:41;13.90;99.90
11107;DHT22;5607;48.302;14.294;2022-10-16T02:38:29;13.90;99.90
11107;DHT22;5607;48.302;14.294;2022-10-16T02:41:16;13.80;99.90
11107;DHT22;5607;48.302;14.294;2022-10-16T02:44:02;13.80;99.90
11107;DHT22;5607;48.302;14.294;2022-10-16T02:46:49;13.80;99.90
11107;DHT22;5607;48.302;14.294;2022-10-16T02:49:35;13.80;99.90
11107;DHT22;5607;48.302;14.294;2022-10-16T02:52:21;13.80;99.90
11107;DHT22;5607;48.302;14.294;2022-10-16T02:55:07;13.80;99.90
11107;DHT22;5607;48.302;14.294;2022-10-16T02:57:55;13.80;99.90
11107;DHT22;5607;48.302;14.294;2022-10-16T03:00:41;13.70;99.90
11107;DHT22;5607;48.302;14.294;2022-10-16T03:03:28;13.70;99.90
11107;DHT22;5607;48.302;14.294;2022-10-16T03:06:14;13.70;99.90
11107;DHT22;5607;48.302;14.294;2022-10-16T03:09:01;13.70;99.90
11107;DHT22;5607;48.302;14.294;2022-10-16T03:11:47;13.80;99.90
11107;DHT22;5607;48.302;14.294;2022-10-16T03:14:33;13.70;99.90
11107;DHT22;5607;48.302;14.294;2022-10-16T03:17:19;13.70;99.90
11107;DHT22;5607;48.302;14.294;2022-10-16T03:20:06;13.70;99.90
11107;DHT22;5607;48.302;14.294;2022-10-16T03:22:52;13.80;99.90
11107;DHT22;5607;48.302;14.294;2022-10-16T03:25:39;13.80;99.90
11107;DHT22;5607;48.302;14.294;2022-10-16T03:28:25;13.80;99.90
11107;DHT22;5607;48.302;14.294;2022-10-16T03:31:11;13.80;99.90
11107;DHT22;5607;48.302;14.294;2022-10-16T03:33:57;13.70;99.90
11107;DHT22;5607;48.302;14.294;2022-10-16T03:36:44;13.80;99.90
11107;DHT22;5607;48.302;14.294;2022-10-16T03:39:31;13.70;99.90
11107;DHT22;5607;48.302;14.294;2022-10-16T03:42:17;13.70;99.90
11107;DHT22;5607;48.302;14.294;2022-10-16T03:45:04;13.70;99.90
11107;DHT22;5607;48.302;14.294;2022-10-16T03:47:50;13.70;99.90
11107;DHT22;5607;48.302;14.294;2022-10-16T03:50:36;13.70;99.90
11107;DHT22;5607;48.302;14.294;2022-10-16T03:53:22;13.70;99.90
11107;DHT22;5607;48.302;14.294;2022-10-16T03:56:09;13.70;99.90
11107;DHT22;5607;48.302;14.294;2022-10-16T03:58:55;13.60;99.90
11107;DHT22;5607;48.302;14.294;2022-10-16T04:01:41;13.60;99.90
11107;DHT22;5607;48.302;14.294;2022-10-16T04:04:27;13.70;99.90
11107;DHT22;5607;48.302;14.294;2022-10-16T04:07:14;13.70;99.90
11107;DHT22;5607;48.302;14.294;2022-10-16T04:10:00;13.70;99.90
11107;DHT22;5607;48.302;14.294;2022-10-16T04:12:46;13.70;99.90
11107;DHT22;5607;48.302;14.294;2022-10-16T04:15:32;13.70;99.90
11107;DHT22;5607;48.302;14.294;2022-10-16T04:18:19;13.70;99.90
11107;DHT22;5607;48.302;14.294;2022-10-16T04:21:05;13.70;99.90
11107;DHT22;5607;48.302;14.294;2022-10-16T04:23:51;13.70;99.90
11107;DHT22;5607;48.302;14.294;2022-10-16T04:26:38;13.70;99.90
11107;DHT22;5607;48.302;14.294;2022-10-16T04:29:24;13.70;99.90
11107;DHT22;5607;48.302;14.294;2022-10-16T04:32:10;13.70;99.90
11107;DHT22;5607;48.302;14.294;2022-10-16T04:34:56;13.70;99.90
11107;DHT22;5607;48.302;14.294;2022-10-16T04:37:43;13.70;99.90
11107;DHT22;5607;48.302;14.294;2022-10-16T04:40:29;13.70;99.90
11107;DHT22;5607;48.302;14.294;2022-10-16T04:43:18;13.70;99.90
11107;DHT22;5607;48.302;14.294;2022-10-16T04:46:05;13.70;99.90
11107;DHT22;5607;48.302;14.294;2022-10-16T04:48:51;13.70;99.90
11107;DHT22;5607;48.302;14.294;2022-10-16T04:51:37;13.60;99.90
11107;DHT22;5607;48.302;14.294;2022-10-16T04:54:24;13.60;99.90
11107;DHT22;5607;48.302;14.294;2022-10-16T04:57:10;13.60;99.90
11107;DHT22;5607;48.302;14.294;2022-10-16T04:59:56;13.60;99.90
11107;DHT22;5607;48.302;14.294;2022-10-16T05:02:43;13.60;99.90
11107;DHT22;5607;48.302;14.294;2022-10-16T05:05:29;13.60;99.90
11107;DHT22;5607;48.302;14.294;2022-10-16T05:08:15;13.60;99.90
11107;DHT22;5607;48.302;14.294;2022-10-16T05:11:02;13.60;99.90
11107;DHT22;5607;48.302;14.294;2022-10-16T05:13:48;13.50;99.90
11107;DHT22;5607;48.302;14.294;2022-10-16T05:16:34;13.50;99.90
11107;DHT22;5607;48.302;14.294;2022-10-16T05:19:21;13.60;99.90
11107;DHT22;5607;48.302;14.294;2022-10-16T05:22:07;13.50;99.90
11107;DHT22;5607;48.302;14.294;2022-10-16T05:24:53;13.40;99.90
11107;DHT22;5607;48.302;14.294;2022-10-16T05:27:39;13.40;99.90
11107;DHT22;5607;48.302;14.294;2022-10-16T05:30:26;13.40;99.90
11107;DHT22;5607;48.302;14.294;2022-10-16T05:33:12;13.50;99.90
11107;DHT22;5607;48.302;14.294;2022-10-16T05:36:03;13.50;99.90
11107;DHT22;5607;48.302;14.294;2022-10-16T05:38:50;13.60;99.90
11107;DHT22;5607;48.302;14.294;2022-10-16T05:41:36;13.60;99.90
11107;DHT22;5607;48.302;14.294;2022-10-16T05:44:22;13.50;99.90
11107;DHT22;5607;48.302;14.294;2022-10-16T05:47:09;13.50;99.90
11107;DHT22;5607;48.302;14.294;2022-10-16T05:49:56;13.40;99.90
11107;DHT22;5607;48.302;14.294;2022-10-16T05:52:42;13.30;99.90
11107;DHT22;5607;48.302;14.294;2022-10-16T05:55:29;13.30;99.90
11107;DHT22;5607;48.302;14.294;2022-10-16T05:58:15;13.20;99.90
11107;DHT22;5607;48.302;14.294;2022-10-16T06:01:12;13.20;99.90
11107;DHT22;5607;48.302;14.294;2022-10-16T06:03:59;13.20;99.90
11107;DHT22;5607;48.302;14.294;2022-10-16T06:06:45;13.20;99.90
11107;DHT22;5607;48.302;14.294;2022-10-16T06:09:31;13.30;99.90
11107;DHT22;5607;48.302;14.294;2022-10-16T06:12:17;13.30;99.90
11107;DHT22;5607;48.302;14.294;2022-10-16T06:15:04;13.30;99.90
11107;DHT22;5607;48.302;14.294;2022-10-16T06:17:50;13.30;99.90
11107;DHT22;5607;48.302;14.294;2022-10-16T06:20:37;13.40;99.90
11107;DHT22;5607;48.302;14.294;2022-10-16T06:23:24;13.50;99.90
11107;DHT22;5607;48.302;14.294;2022-10-16T06:26:11;13.60;99.90
11107;DHT22;5607;48.302;14.294;2022-10-16T06:28:58;13.70;99.90
11107;DHT22;5607;48.302;14.294;2022-10-16T06:31:44;13.60;99.90
11107;DHT22;5607;48.302;14.294;2022-10-16T06:34:31;13.70;99.90
11107;DHT22;5607;48.302;14.294;2022-10-16T06:37:17;13.70;99.90
11107;DHT22;5607;48.302;14.294;2022-10-16T06:40:03;13.80;99.90
11107;DHT22;5607;48.302;14.294;2022-10-16T06:42:50;13.90;99.90
11107;DHT22;5607;48.302;14.294;2022-10-16T06:45:37;14.00;99.90
11107;DHT22;5607;48.302;14.294;2022-10-16T06:48:24;14.00;99.90
11107;DHT22;5607;48.302;14.294;2022-10-16T06:51:14;14.10;99.90
11107;DHT22;5607;48.302;14.294;2022-10-16T06:54:00;14.00;99.90
11107;DHT22;5607;48.302;14.294;2022-10-16T06:56:47;14.10;99.90
11107;DHT22;5607;48.302;14.294;2022-10-16T06:59:33;14.10;99.90
11107;DHT22;5607;48.302;14.294;2022-10-16T07:02:19;14.20;99.90
11107;DHT22;5607;48.302;14.294;2022-10-16T07:05:05;14.20;99.90
11107;DHT22;5607;48.302;14.294;2022-10-16T07:07:52;14.20;99.90
11107;DHT22;5607;48.302;14.294;2022-10-16T07:10:38;14.20;99.90
11107;DHT22;5607;48.302;14.294;2022-10-16T07:13:26;14.30;99.90
11107;DHT22;5607;48.302;14.294;2022-10-16T07:16:13;14.50;99.90
11107;DHT22;5607;48.302;14.294;2022-10-16T07:19:00;14.60;99.90
11107;DHT22;5607;48.302;14.294;2022-10-16T07:21:47;14.70;99.90
11107;DHT22;5607;48.302;14.294;2022-10-16T07:24:33;14.80;99.90
11107;DHT22;5607;48.302;14.294;2022-10-16T07:27:19;15.00;99.90
11107;DHT22;5607;48.302;14.294;2022-10-16T07:30:08;15.00;99.90
11107;DHT22;5607;48.302;14.294;2022-10-16T07:32:54;15.10;99.90
11107;DHT22;5607;48.302;14.294;2022-10-16T07:35:47;15.20;99.90
11107;DHT22;5607;48.302;14.294;2022-10-16T07:38:34;15.40;99.90
11107;DHT22;5607;48.302;14.294;2022-10-16T07:41:20;15.50;99.90
11107;DHT22;5607;48.302;14.294;2022-10-16T07:44:06;15.60;99.90
11107;DHT22;5607;48.302;14.294;2022-10-16T07:46:52;15.80;93.10
11107;DHT22;5607;48.302;14.294;2022-10-16T07:49:39;16.00;81.60
11107;DHT22;5607;48.302;14.294;2022-10-16T07:52:25;16.10;66.80
11107;DHT22;5607;48.302;14.294;2022-10-16T07:55:11;16.10;49.90
11107;DHT22;5607;48.302;14.294;2022-10-16T07:57:58;15.90;44.40
11107;DHT22;5607;48.302;14.294;2022-10-16T08:00:44;15.70;35.10
11107;DHT22;5607;48.302;14.294;2022-10-16T08:03:30;15.60;39.90
11107;DHT22;5607;48.302;14.294;2022-10-16T08:06:17;15.60;53.70
11107;DHT22;5607;48.302;14.294;2022-10-16T08:09:04;15.60;62.20
11107;DHT22;5607;48.302;14.294;2022-10-16T08:11:50;15.80;54.90
11107;DHT22;5607;48.302;14.294;2022-10-16T08:14:38;16.00;43.20
11107;DHT22;5607;48.302;14.294;2022-10-16T08:17:24;16.10;36.00
11107;DHT22;5607;48.302;14.294;2022-10-16T08:20:11;16.30;26.60
11107;DHT22;5607;48.302;14.294;2022-10-16T08:22:57;16.40;12.00
11107;DHT22;5607;48.302;14.294;2022-10-16T08:25:44;16.50;11.40
11107;DHT22;5607;48.302;14.294;2022-10-16T08:28:30;16.70;11.20
11107;DHT22;5607;48.302;14.294;2022-10-16T08:31:17;17.00;1.00
11107;DHT22;5607;48.302;14.294;2022-10-16T08:34:03;17.30;1.00
11107;DHT22;5607;48.302;14.294;2022-10-16T08:36:49;17.70;1.00
11107;DHT22;5607;48.302;14.294;2022-10-16T08:39:35;18.10;1.00
11107;DHT22;5607;48.302;14.294;2022-10-16T08:51:19;18.10;1.00
11107;DHT22;5607;48.302;14.294;2022-10-16T08:54:14;18.10;1.00
11107;DHT22;5607;48.302;14.294;2022-10-16T08:57:12;18.20;1.00
11107;DHT22;5607;48.302;14.294;2022-10-16T09:00:00;18.20;1.00
11107;DHT22;5607;48.302;14.294;2022-10-16T09:02:55;18.20;1.00
11107;DHT22;5607;48.302;14.294;2022-10-16T09:23:30;18.40;1.00
11107;DHT22;5607;48.302;14.294;2022-10-16T09:26:19;18.60;1.00
11107;DHT22;5607;48.302;14.294;2022-10-16T09:29:11;18.80;1.00
11107;DHT22;5607;48.302;14.294;2022-10-16T09:31:58;18.90;1.00
11107;DHT22;5607;48.302;14.294;2022-10-16T09:34:53;19.00;1.00
11107;DHT22;5607;48.302;14.294;2022-10-16T09:37:42;19.10;1.00
11107;DHT22;5607;48.302;14.294;2022-10-16T09:40:31;19.10;1.00
11107;DHT22;5607;48.302;14.294;2022-10-16T09:43:28;19.20;1.00
11107;DHT22;5607;48.302;14.294;2022-10-16T09:46:27;19.30;1.00
11107;DHT22;5607;48.302;14.294;2022-10-16T09:49:22;19.40;1.00
11107;DHT22;5607;48.302;14.294;2022-10-16T09:52:13;19.60;1.00
11107;DHT22;5607;48.302;14.294;2022-10-16T09:55:12;19.70;1.00
11107;DHT22;5607;48.302;14.294;2022-10-16T09:58:00;19.70;1.00
11107;DHT22;5607;48.302;14.294;2022-10-16T10:00:53;19.80;1.00
11107;DHT22;5607;48.302;14.294;2022-10-16T10:03:40;19.90;1.00
11107;DHT22;5607;48.302;14.294;2022-10-16T10:06:36;19.90;1.00
11107;DHT22;5607;48.302;14.294;2022-10-16T10:09:26;20.10;1.00
11107;DHT22;5607;48.302;14.294;2022-10-16T10:12:31;20.30;1.00
11107;DHT22;5607;48.302;14.294;2022-10-16T10:15:19;20.50;1.00
11107;DHT22;5607;48.302;14.294;2022-10-16T10:18:16;20.40;1.00
11107;DHT22;5607;48.302;14.294;2022-10-16T10:21:03;20.40;1.00
11107;DHT22;5607;48.302;14.294;2022-10-16T10:23:54;20.40;1.00
11107;DHT22;5607;48.302;14.294;2022-10-16T10:27:00;20.40;1.00
11107;DHT22;5607;48.302;14.294;2022-10-16T10:30:01;20.40;1.00
11107;DHT22;5607;48.302;14.294;2022-10-16T10:48:11;19.50;1.00
11107;DHT22;5607;48.302;14.294;2022-10-16T10:51:07;19.50;1.00
11107;DHT22;5607;48.302;14.294;2022-10-16T10:54:05;19.50;1.00
11107;DHT22;5607;48.302;14.294;2022-10-16T10:56:57;19.60;1.00
11107;DHT22;5607;48.302;14.294;2022-10-16T11:05:49;19.90;1.00
11107;DHT22;5607;48.302;14.294;2022-10-16T11:11:50;20.10;1.00
11107;DHT22;5607;48.302;14.294;2022-10-16T11:14:42;20.30;1.00
11107;DHT22;5607;48.302;14.294;2022-10-16T11:17:35;20.50;1.00
11107;DHT22;5607;48.302;14.294;2022-10-16T11:20:25;20.60;1.00
11107;DHT22;5607;48.302;14.294;2022-10-16T11:23:21;20.80;1.00
11107;DHT22;5607;48.302;14.294;2022-10-16T11:26:31;20.90;1.00
11107;DHT22;5607;48.302;14.294;2022-10-16T11:29:26;20.90;1.00
11107;DHT22;5607;48.302;14.294;2022-10-16T11:32:21;20.90;1.00
11107;DHT22;5607;48.302;14.294;2022-10-16T11:35:11;20.70;1.00
11107;DHT22;5607;48.302;14.294;2022-10-16T11:38:02;20.60;1.00
11107;DHT22;5607;48.302;14.294;2022-10-16T11:40:50;20.60;1.00
11107;DHT22;5607;48.302;14.294;2022-10-16T11:43:41;20.50;1.00
11107;DHT22;5607;48.302;14.294;2022-10-16T11:46:28;20.40;1.00
11107;DHT22;5607;48.302;14.294;2022-10-16T11:49:21;20.30;1.00
11107;DHT22;5607;48.302;14.294;2022-10-16T11:52:52;20.40;1.00
11107;DHT22;5607;48.302;14.294;2022-10-16T11:55:23;20.50;1.00
11107;DHT22;5607;48.302;14.294;2022-10-16T12:06:57;21.10;1.00
11107;DHT22;5607;48.302;14.294;2022-10-16T12:09:45;21.20;1.00
11107;DHT22;5607;48.302;14.294;2022-10-16T12:15:30;21.60;1.00
11107;DHT22;5607;48.302;14.294;2022-10-16T12:18:20;21.70;1.00
11107;DHT22;5607;48.302;14.294;2022-10-16T12:21:07;21.60;1.00
11107;DHT22;5607;48.302;14.294;2022-10-16T12:27:30;21.80;1.00
11107;DHT22;5607;48.302;14.294;2022-10-16T12:30:20;21.90;1.00
11107;DHT22;5607;48.302;14.294;2022-10-16T12:33:21;22.00;1.00
11107;DHT22;5607;48.302;14.294;2022-10-16T12:39:23;22.10;1.00
11107;DHT22;5607;48.302;14.294;2022-10-16T12:48:20;22.40;1.00
11107;DHT22;5607;48.302;14.294;2022-10-16T12:51:11;22.50;1.00
11107;DHT22;5607;48.302;14.294;2022-10-16T12:54:20;22.60;1.00
11107;DHT22;5607;48.302;14.294;2022-10-16T13:09:02;22.90;1.00
11107;DHT22;5607;48.302;14.294;2022-10-16T13:12:00;22.90;1.00
11107;DHT22;5607;48.302;14.294;2022-10-16T13:15:00;23.00;1.00
11107;DHT22;5607;48.302;14.294;2022-10-16T13:18:01;23.00;1.00
11107;DHT22;5607;48.302;14.294;2022-10-16T13:23:48;23.00;99.90
11107;DHT22;5607;48.302;14.294;2022-10-16T13:26:40;23.10;99.90
11107;DHT22;5607;48.302;14.294;2022-10-16T13:29:30;23.10;99.90
11107;DHT22;5607;48.302;14.294;2022-10-16T13:32:16;23.10;99.90
11107;DHT22;5607;48.302;14.294;2022-10-16T13:35:03;23.10;99.90
11107;DHT22;5607;48.302;14.294;2022-10-16T13:37:50;22.90;99.90
11107;DHT22;5607;48.302;14.294;2022-10-16T13:40:36;22.90;99.90
11107;DHT22;5607;48.302;14.294;2022-10-16T13:43:33;22.80;99.90
11107;DHT22;5607;48.302;14.294;2022-10-16T13:46:23;22.80;99.90
11107;DHT22;5607;48.302;14.294;2022-10-16T13:49:16;22.60;99.90
11107;DHT22;5607;48.302;14.294;2022-10-16T13:52:03;22.60;99.90
11107;DHT22;5607;48.302;14.294;2022-10-16T13:54:51;22.40;99.90
11107;DHT22;5607;48.302;14.294;2022-10-16T13:57:38;22.40;99.90
11107;DHT22;5607;48.302;14.294;2022-10-16T14:00:25;22.30;99.90
11107;DHT22;5607;48.302;14.294;2022-10-16T14:03:15;22.30;99.90
11107;DHT22;5607;48.302;14.294;2022-10-16T14:06:06;22.20;99.90
11107;DHT22;5607;48.302;14.294;2022-10-16T14:08:59;22.20;99.90
11107;DHT22;5607;48.302;14.294;2022-10-16T14:11:50;22.10;99.90
11107;DHT22;5607;48.302;14.294;2022-10-16T14:14:44;22.00;99.90
11107;DHT22;5607;48.302;14.294;2022-10-16T14:17:31;22.00;99.90
11107;DHT22;5607;48.302;14.294;2022-10-16T14:20:20;21.90;99.90
11107;DHT22;5607;48.302;14.294;2022-10-16T14:23:23;21.90;99.90
11107;DHT22;5607;48.302;14.294;2022-10-16T14:26:14;21.90;99.90
11107;DHT22;5607;48.302;14.294;2022-10-16T14:29:10;21.80;99.90
11107;DHT22;5607;48.302;14.294;2022-10-16T14:32:04;21.80;99.90
11107;DHT22;5607;48.302;14.294;2022-10-16T14:34:53;21.70;99.90
11107;DHT22;5607;48.302;14.294;2022-10-16T14:37:40;21.70;99.90
11107;DHT22;5607;48.302;14.294;2022-10-16T14:40:28;21.60;99.90
11107;DHT22;5607;48.302;14.294;2022-10-16T14:43:17;21.60;99.90
11107;DHT22;5607;48.302;14.294;2022-10-16T14:46:09;21.50;99.90
11107;DHT22;5607;48.302;14.294;2022-10-16T14:51:56;21.50;99.90
11107;DHT22;5607;48.302;14.294;2022-10-16T14:54:43;21.50;99.90
11107;DHT22;5607;48.302;14.294;2022-10-16T14:57:33;21.50;99.90
11107;DHT22;5607;48.302;14.294;2022-10-16T15:00:22;21.40;99.90
11107;DHT22;5607;48.302;14.294;2022-10-16T15:03:09;21.40;99.90
11107;DHT22;5607;48.302;14.294;2022-10-16T15:05:55;21.40;99.90
11107;DHT22;5607;48.302;14.294;2022-10-16T15:08:42;21.30;99.90
11107;DHT22;5607;48.302;14.294;2022-10-16T15:11:28;21.20;99.90
11107;DHT22;5607;48.302;14.294;2022-10-16T15:14:15;21.10;99.90
11107;DHT22;5607;48.302;14.294;2022-10-16T15:17:01;21.00;99.90
11107;DHT22;5607;48.302;14.294;2022-10-16T15:19:48;21.00;99.90
11107;DHT22;5607;48.302;14.294;2022-10-16T15:22:34;20.90;99.90
11107;DHT22;5607;48.302;14.294;2022-10-16T15:28:28;20.80;1.00
11107;DHT22;5607;48.302;14.294;2022-10-16T15:31:14;20.80;1.00
11107;DHT22;5607;48.302;14.294;2022-10-16T15:34:01;20.70;1.00
11107;DHT22;5607;48.302;14.294;2022-10-16T15:36:50;20.70;1.00
11107;DHT22;5607;48.302;14.294;2022-10-16T15:39:36;20.60;1.00
11107;DHT22;5607;48.302;14.294;2022-10-16T15:42:22;20.60;1.00
11107;DHT22;5607;48.302;14.294;2022-10-16T15:45:09;20.50;1.00
11107;DHT22;5607;48.302;14.294;2022-10-16T15:47:55;20.50;1.00
11107;DHT22;5607;48.302;14.294;2022-10-16T15:50:42;20.40;1.00
11107;DHT22;5607;48.302;14.294;2022-10-16T15:53:28;20.40;1.00
11107;DHT22;5607;48.302;14.294;2022-10-16T15:56:14;20.30;1.00
11107;DHT22;5607;48.302;14.294;2022-10-16T15:59:01;20.30;1.00
11107;DHT22;5607;48.302;14.294;2022-10-16T16:01:47;20.30;1.00
11107;DHT22;5607;48.302;14.294;2022-10-16T16:04:34;20.20;1.00
11107;DHT22;5607;48.302;14.294;2022-10-16T16:07:20;20.10;1.00
11107;DHT22;5607;48.302;14.294;2022-10-16T16:10:07;20.00;1.00
11107;DHT22;5607;48.302;14.294;2022-10-16T16:12:54;19.90;1.00
11107;DHT22;5607;48.302;14.294;2022-10-16T16:15:41;19.80;1.00
11107;DHT22;5607;48.302;14.294;2022-10-16T16:18:27;19.80;1.00
11107;DHT22;5607;48.302;14.294;2022-10-16T16:21:14;19.70;1.00
11107;DHT22;5607;48.302;14.294;2022-10-16T16:24:00;19.60;1.00
11107;DHT22;5607;48.302;14.294;2022-10-16T16:26:53;19.50;1.00
11107;DHT22;5607;48.302;14.294;2022-10-16T16:29:39;19.40;1.00
11107;DHT22;5607;48.302;14.294;2022-10-16T16:32:26;19.40;1.00
11107;DHT22;5607;48.302;14.294;2022-10-16T16:35:12;19.30;1.00
11107;DHT22;5607;48.302;14.294;2022-10-16T16:37:59;19.30;1.00
11107;DHT22;5607;48.302;14.294;2022-10-16T16:40:45;19.10;1.00
11107;DHT22;5607;48.302;14.294;2022-10-16T16:43:32;19.00;1.00
11107;DHT22;5607;48.302;14.294;2022-10-16T16:46:18;19.00;1.00
11107;DHT22;5607;48.302;14.294;2022-10-16T16:49:05;18.90;1.00
11107;DHT22;5607;48.302;14.294;2022-10-16T16:51:52;18.80;1.00
11107;DHT22;5607;48.302;14.294;2022-10-16T16:54:38;18.80;1.00
11107;DHT22;5607;48.302;14.294;2022-10-16T16:57:24;18.70;1.00
11107;DHT22;5607;48.302;14.294;2022-10-16T17:00:11;18.60;1.00
11107;DHT22;5607;48.302;14.294;2022-10-16T17:02:58;18.60;1.00
11107;DHT22;5607;48.302;14.294;2022-10-16T17:05:54;18.60;1.00
11107;DHT22;5607;48.302;14.294;2022-10-16T17:08:41;18.60;1.00
11107;DHT22;5607;48.302;14.294;2022-10-16T17:11:27;18.40;1.00
11107;DHT22;5607;48.302;14.294;2022-10-16T17:14:13;18.40;1.00
11107;DHT22;5607;48.302;14.294;2022-10-16T17:17:05;18.30;1.00
11107;DHT22;5607;48.302;14.294;2022-10-16T17:19:52;18.30;1.00
11107;DHT22;5607;48.302;14.294;2022-10-16T17:22:39;18.20;1.00
11107;DHT22;5607;48.302;14.294;2022-10-16T17:25:25;18.20;1.00
11107;DHT22;5607;48.302;14.294;2022-10-16T17:28:12;18.10;1.00
11107;DHT22;5607;48.302;14.294;2022-10-16T17:31:18;18.10;1.00
11107;DHT22;5607;48.302;14.294;2022-10-16T17:34:05;18.00;1.00
11107;DHT22;5607;48.302;14.294;2022-10-16T17:36:52;18.00;1.00
11107;DHT22;5607;48.302;14.294;2022-10-16T17:39:38;18.00;1.00
11107;DHT22;5607;48.302;14.294;2022-10-16T17:42:24;17.90;1.00
11107;DHT22;5607;48.302;14.294;2022-10-16T17:45:11;17.90;1.00
11107;DHT22;5607;48.302;14.294;2022-10-16T17:47:57;17.80;1.00
11107;DHT22;5607;48.302;14.294;2022-10-16T17:50:44;17.80;1.00
11107;DHT22;5607;48.302;14.294;2022-10-16T17:53:30;17.80;1.00
11107;DHT22;5607;48.302;14.294;2022-10-16T17:56:17;17.80;1.00
11107;DHT22;5607;48.302;14.294;2022-10-16T17:59:03;17.70;1.00
11107;DHT22;5607;48.302;14.294;2022-10-16T18:01:51;17.70;1.00
11107;DHT22;5607;48.302;14.294;2022-10-16T18:04:38;17.60;1.00
11107;DHT22;5607;48.302;14.294;2022-10-16T18:07:24;17.60;1.00
11107;DHT22;5607;48.302;14.294;2022-10-16T18:10:10;17.60;1.00
11107;DHT22;5607;48.302;14.294;2022-10-16T18:12:57;17.50;1.00
11107;DHT22;5607;48.302;14.294;2022-10-16T18:15:43;17.50;1.00
11107;DHT22;5607;48.302;14.294;2022-10-16T18:18:29;17.50;1.00
11107;DHT22;5607;48.302;14.294;2022-10-16T18:21:16;17.40;1.00
11107;DHT22;5607;48.302;14.294;2022-10-16T18:24:03;17.40;1.00
11107;DHT22;5607;48.302;14.294;2022-10-16T18:26:52;17.30;1.00
11107;DHT22;5607;48.302;14.294;2022-10-16T18:29:41;17.30;1.00
11107;DHT22;5607;48.302;14.294;2022-10-16T18:32:27;17.30;1.00
11107;DHT22;5607;48.302;14.294;2022-10-16T18:35:17;17.20;1.50
11107;DHT22;5607;48.302;14.294;2022-10-16T18:38:03;17.20;5.60
11107;DHT22;5607;48.302;14.294;2022-10-16T18:40:49;17.20;8.40
11107;DHT22;5607;48.302;14.294;2022-10-16T18:43:36;17.10;14.70
11107;DHT22;5607;48.302;14.294;2022-10-16T18:46:25;17.20;22.60
11107;DHT22;5607;48.302;14.294;2022-10-16T18:49:12;17.10;14.40
11107;DHT22;5607;48.302;14.294;2022-10-16T18:51:58;17.00;17.80
11107;DHT22;5607;48.302;14.294;2022-10-16T18:54:47;17.00;20.70
11107;DHT22;5607;48.302;14.294;2022-10-16T18:57:34;17.00;28.00
11107;DHT22;5607;48.302;14.294;2022-10-16T19:00:20;17.00;35.80
11107;DHT22;5607;48.302;14.294;2022-10-16T19:03:06;17.00;45.60
11107;DHT22;5607;48.302;14.294;2022-10-16T19:05:52;16.90;37.60
11107;DHT22;5607;48.302;14.294;2022-10-16T19:08:39;16.80;31.20
11107;DHT22;5607;48.302;14.294;2022-10-16T19:11:25;16.80;32.30
11107;DHT22;5607;48.302;14.294;2022-10-16T19:14:13;16.80;33.70
11107;DHT22;5607;48.302;14.294;2022-10-16T19:16:59;16.80;35.90
11107;DHT22;5607;48.302;14.294;2022-10-16T19:19:45;16.80;40.30
11107;DHT22;5607;48.302;14.294;2022-10-16T19:22:32;16.80;49.60
11107;DHT22;5607;48.302;14.294;2022-10-16T19:25:39;16.70;48.10
11107;DHT22;5607;48.302;14.294;2022-10-16T19:28:25;16.80;26.90
11107;DHT22;5607;48.302;14.294;2022-10-16T19:31:12;16.80;20.20
11107;DHT22;5607;48.302;14.294;2022-10-16T19:33:59;16.70;16.40
11107;DHT22;5607;48.302;14.294;2022-10-16T19:36:47;16.70;20.10
11107;DHT22;5607;48.302;14.294;2022-10-16T19:39:37;16.60;16.50